CTN461 LSZH-LDZA
Flight info
| Callsign | CTN461 |
|---|---|
| Flight time | 0h 59m |
| Altitude | 35000 |
| Route | DEGES Z2 TUNUM Z204 GEDSO DCT LULUD |
| Aircraft | A319/M-SDE3FGHIRWY/LB1 |
Departure
| Time | 2026-05-01 10:08 |
|---|---|
| Airport | Zürich Airport (LSZH) |
Arrival
| Time | 2026-05-01 11:08 |
|---|---|
| Airport | Zagreb Franjo Tuđman International Airport (LDZA) |
| Time | Latitude | Longitude | Altitude | Speed | Heading |
|---|---|---|---|---|---|
| 2026-05-01 09:50 | 47.45343 | 8.55809 | 1407 ft | 0 kts | 6° |
| 2026-05-01 09:57 | 47.45323 | 8.55806 | 1411 ft | 4 kts | 6° |
| 2026-05-01 09:57 | 47.45296 | 8.55802 | 1408 ft | 4 kts | 358° |
| 2026-05-01 09:57 | 47.45271 | 8.55811 | 1413 ft | 4 kts | 322° |
| 2026-05-01 09:57 | 47.45257 | 8.55839 | 1413 ft | 2 kts | 276° |
| 2026-05-01 09:58 | 47.45257 | 8.55840 | 1413 ft | 0 kts | 276° |
| 2026-05-01 10:01 | 47.45257 | 8.55835 | 1413 ft | 2 kts | 276° |
| 2026-05-01 10:01 | 47.45261 | 8.55788 | 1409 ft | 7 kts | 276° |
| 2026-05-01 10:01 | 47.45266 | 8.55710 | 1407 ft | 8 kts | 276° |
| 2026-05-01 10:02 | 47.45272 | 8.55624 | 1407 ft | 9 kts | 276° |
| 2026-05-01 10:02 | 47.45310 | 8.55556 | 1410 ft | 9 kts | 329° |
| 2026-05-01 10:02 | 47.45377 | 8.55508 | 1408 ft | 12 kts | 335° |
| 2026-05-01 10:02 | 47.45467 | 8.55447 | 1406 ft | 15 kts | 335° |
| 2026-05-01 10:03 | 47.45523 | 8.55473 | 1409 ft | 8 kts | 63° |
| 2026-05-01 10:03 | 47.45523 | 8.55551 | 1406 ft | 8 kts | 97° |
| 2026-05-01 10:03 | 47.45515 | 8.55647 | 1411 ft | 11 kts | 96° |
| 2026-05-01 10:03 | 47.45507 | 8.55778 | 1407 ft | 13 kts | 95° |
| 2026-05-01 10:04 | 47.45497 | 8.55917 | 1407 ft | 14 kts | 97° |
| 2026-05-01 10:04 | 47.45486 | 8.56063 | 1410 ft | 15 kts | 96° |
| 2026-05-01 10:04 | 47.45479 | 8.56200 | 1408 ft | 10 kts | 83° |
| 2026-05-01 10:04 | 47.45511 | 8.56275 | 1410 ft | 8 kts | 52° |
| 2026-05-01 10:05 | 47.45544 | 8.56335 | 1413 ft | 8 kts | 50° |
| 2026-05-01 10:05 | 47.45584 | 8.56407 | 1416 ft | 10 kts | 53° |
| 2026-05-01 10:05 | 47.45592 | 8.56506 | 1415 ft | 11 kts | 97° |
| 2026-05-01 10:05 | 47.45584 | 8.56618 | 1417 ft | 12 kts | 96° |
| 2026-05-01 10:06 | 47.45575 | 8.56740 | 1422 ft | 13 kts | 97° |
| 2026-05-01 10:06 | 47.45565 | 8.56876 | 1420 ft | 14 kts | 96° |
| 2026-05-01 10:06 | 47.45574 | 8.56994 | 1422 ft | 8 kts | 52° |
| 2026-05-01 10:06 | 47.45605 | 8.57018 | 1424 ft | 4 kts | 15° |
| 2026-05-01 10:07 | 47.45639 | 8.57025 | 1425 ft | 6 kts | 5° |
| 2026-05-01 10:07 | 47.45664 | 8.56986 | 1424 ft | 6 kts | 279° |
| 2026-05-01 10:07 | 47.45665 | 8.56972 | 1424 ft | 0 kts | 275° |
| 2026-05-01 10:07 | 47.45665 | 8.56969 | 1424 ft | 4 kts | 275° |
| 2026-05-01 10:08 | 47.45793 | 8.55206 | 1405 ft | 158 kts | 276° |
| 2026-05-01 10:08 | 47.45912 | 8.53530 | 2000 ft | 163 kts | 277° |
| 2026-05-01 10:08 | 47.46028 | 8.51842 | 2858 ft | 166 kts | 277° |
| 2026-05-01 10:09 | 47.46148 | 8.50145 | 3696 ft | 166 kts | 277° |
| 2026-05-01 10:09 | 47.46235 | 8.48438 | 4475 ft | 169 kts | 264° |
| 2026-05-01 10:09 | 47.45817 | 8.46798 | 5032 ft | 181 kts | 231° |
| 2026-05-01 10:09 | 47.44822 | 8.45499 | 5468 ft | 201 kts | 218° |
| 2026-05-01 10:10 | 47.43759 | 8.43967 | 5857 ft | 228 kts | 234° |
| 2026-05-01 10:10 | 47.43136 | 8.41819 | 6772 ft | 229 kts | 253° |
| 2026-05-01 10:10 | 47.42128 | 8.37357 | 8481 ft | 238 kts | 225° |
| 2026-05-01 10:11 | 47.40727 | 8.36151 | 9338 ft | 237 kts | 189° |
| 2026-05-01 10:11 | 47.39114 | 8.36420 | 10140 ft | 237 kts | 151° |
| 2026-05-01 10:11 | 47.37956 | 8.38132 | 10942 ft | 238 kts | 114° |
| 2026-05-01 10:11 | 47.37696 | 8.40475 | 11841 ft | 236 kts | 83° |
| 2026-05-01 10:12 | 47.38328 | 8.42739 | 12639 ft | 243 kts | 49° |
| 2026-05-01 10:12 | 47.39195 | 8.43806 | 13165 ft | 248 kts | 35° |
| 2026-05-01 10:12 | 47.42334 | 8.47690 | 14790 ft | 269 kts | 54° |
| 2026-05-01 10:13 | 47.43502 | 8.49996 | 15083 ft | 293 kts | 54° |
| 2026-05-01 10:13 | 47.44324 | 8.51656 | 15258 ft | 309 kts | 55° |
| 2026-05-01 10:13 | 47.45405 | 8.54520 | 15472 ft | 332 kts | 70° |
| 2026-05-01 10:14 | 47.45961 | 8.61637 | 16235 ft | 362 kts | 87° |
| 2026-05-01 10:14 | 47.46083 | 8.65381 | 16935 ft | 366 kts | 86° |
| 2026-05-01 10:14 | 47.46218 | 8.69154 | 17670 ft | 370 kts | 86° |
| 2026-05-01 10:14 | 47.46362 | 8.72971 | 18404 ft | 374 kts | 86° |
| 2026-05-01 10:15 | 47.46511 | 8.76825 | 19046 ft | 378 kts | 86° |
| 2026-05-01 10:15 | 47.46633 | 8.80723 | 19669 ft | 382 kts | 89° |
| 2026-05-01 10:15 | 47.46387 | 8.84644 | 20287 ft | 387 kts | 99° |
| 2026-05-01 10:15 | 47.45824 | 8.88560 | 20903 ft | 391 kts | 101° |
| 2026-05-01 10:16 | 47.45243 | 8.92505 | 21502 ft | 395 kts | 100° |
| 2026-05-01 10:16 | 47.44653 | 8.96538 | 22108 ft | 399 kts | 100° |
| 2026-05-01 10:16 | 47.43545 | 9.04242 | 23174 ft | 406 kts | 99° |
| 2026-05-01 10:17 | 47.42959 | 9.08337 | 23720 ft | 409 kts | 99° |
| 2026-05-01 10:17 | 47.41962 | 9.15636 | 24556 ft | 413 kts | 95° |
| 2026-05-01 10:17 | 47.41763 | 9.19872 | 25021 ft | 413 kts | 88° |
| 2026-05-01 10:18 | 47.42480 | 9.28270 | 25946 ft | 414 kts | 76° |
| 2026-05-01 10:18 | 47.43090 | 9.32433 | 26419 ft | 416 kts | 75° |
| 2026-05-01 10:18 | 47.43720 | 9.36611 | 26890 ft | 418 kts | 75° |
| 2026-05-01 10:19 | 47.44362 | 9.40805 | 27343 ft | 420 kts | 75° |
| 2026-05-01 10:19 | 47.45009 | 9.45021 | 27791 ft | 422 kts | 75° |
| 2026-05-01 10:19 | 47.45654 | 9.49268 | 28238 ft | 424 kts | 75° |
| 2026-05-01 10:20 | 47.46893 | 9.57832 | 29085 ft | 429 kts | 79° |
| 2026-05-01 10:20 | 47.47107 | 9.62252 | 29492 ft | 434 kts | 88° |
| 2026-05-01 10:20 | 47.46913 | 9.66724 | 29889 ft | 438 kts | 91° |
| 2026-05-01 10:20 | 47.46663 | 9.71224 | 30277 ft | 440 kts | 91° |
| 2026-05-01 10:21 | 47.46415 | 9.75738 | 30616 ft | 442 kts | 91° |
| 2026-05-01 10:21 | 47.45920 | 9.84768 | 31459 ft | 440 kts | 91° |
| 2026-05-01 10:21 | 47.45672 | 9.89271 | 31911 ft | 439 kts | 91° |
| 2026-05-01 10:22 | 47.45165 | 9.98288 | 32795 ft | 437 kts | 91° |
| 2026-05-01 10:22 | 47.44652 | 10.07218 | 33723 ft | 435 kts | 91° |
| 2026-05-01 10:23 | 47.44390 | 10.11663 | 34198 ft | 434 kts | 91° |
| 2026-05-01 10:23 | 47.43731 | 10.20237 | 34935 ft | 437 kts | 97° |
| 2026-05-01 10:23 | 47.43136 | 10.24641 | 35312 ft | 437 kts | 97° |
| 2026-05-01 10:24 | 47.41964 | 10.33443 | 35991 ft | 437 kts | 97° |
| 2026-05-01 10:24 | 47.40786 | 10.42265 | 36634 ft | 438 kts | 97° |
| 2026-05-01 10:25 | 47.39588 | 10.51086 | 37238 ft | 440 kts | 97° |
| 2026-05-01 10:25 | 47.38366 | 10.59932 | 37314 ft | 440 kts | 98° |
| 2026-05-01 10:26 | 47.37134 | 10.68792 | 37310 ft | 440 kts | 97° |
| 2026-05-01 10:27 | 47.34659 | 10.86471 | 37328 ft | 440 kts | 98° |
| 2026-05-01 10:28 | 47.32786 | 10.99700 | 37342 ft | 438 kts | 98° |
| 2026-05-01 10:28 | 47.30904 | 11.12909 | 37365 ft | 439 kts | 98° |
| 2026-05-01 10:29 | 47.29011 | 11.26109 | 37378 ft | 440 kts | 98° |
| 2026-05-01 10:30 | 47.26424 | 11.43819 | 37369 ft | 440 kts | 98° |
| 2026-05-01 10:31 | 47.24465 | 11.52347 | 37371 ft | 449 kts | 113° |
| 2026-05-01 10:31 | 47.20995 | 11.60067 | 37373 ft | 454 kts | 121° |
| 2026-05-01 10:32 | 47.15535 | 11.71457 | 37366 ft | 455 kts | 121° |
| 2026-05-01 10:33 | 47.08290 | 11.86704 | 37353 ft | 453 kts | 115° |
| 2026-05-01 10:34 | 47.04395 | 11.99211 | 37345 ft | 450 kts | 109° |
| 2026-05-01 10:34 | 47.01849 | 12.07592 | 37357 ft | 450 kts | 109° |
| 2026-05-01 10:35 | 46.98016 | 12.20166 | 37368 ft | 451 kts | 109° |
| 2026-05-01 10:35 | 46.95453 | 12.28556 | 37377 ft | 452 kts | 109° |
| 2026-05-01 10:36 | 46.91596 | 12.41138 | 37380 ft | 452 kts | 109° |
| 2026-05-01 10:37 | 46.89015 | 12.49515 | 37372 ft | 452 kts | 109° |
| 2026-05-01 10:37 | 46.85121 | 12.62086 | 37364 ft | 453 kts | 110° |
| 2026-05-01 10:38 | 46.82517 | 12.70483 | 37351 ft | 454 kts | 110° |
| 2026-05-01 10:38 | 46.79884 | 12.78915 | 37355 ft | 454 kts | 110° |
| 2026-05-01 10:39 | 46.77253 | 12.87298 | 37350 ft | 454 kts | 110° |
| 2026-05-01 10:39 | 46.74620 | 12.95675 | 37354 ft | 455 kts | 110° |
| 2026-05-01 10:40 | 46.71987 | 13.04069 | 37363 ft | 455 kts | 110° |
| 2026-05-01 10:40 | 46.69354 | 13.12455 | 37367 ft | 456 kts | 110° |
| 2026-05-01 10:41 | 46.66704 | 13.20822 | 37369 ft | 455 kts | 110° |
| 2026-05-01 10:42 | 46.62695 | 13.33381 | 37376 ft | 456 kts | 111° |
| 2026-05-01 10:42 | 46.60016 | 13.41757 | 37383 ft | 457 kts | 111° |
| 2026-05-01 10:43 | 46.57330 | 13.50144 | 37388 ft | 458 kts | 111° |
| 2026-05-01 10:43 | 46.54637 | 13.58532 | 37389 ft | 459 kts | 111° |
| 2026-05-01 10:44 | 46.51928 | 13.66926 | 37393 ft | 459 kts | 111° |
| 2026-05-01 10:44 | 46.49210 | 13.75320 | 37399 ft | 459 kts | 111° |
| 2026-05-01 10:45 | 46.46480 | 13.83722 | 37406 ft | 461 kts | 111° |
| 2026-05-01 10:45 | 46.43724 | 13.92172 | 36983 ft | 462 kts | 111° |
| 2026-05-01 10:45 | 46.42810 | 13.94974 | 36262 ft | 467 kts | 111° |
| 2026-05-01 10:46 | 46.41413 | 13.99263 | 35372 ft | 471 kts | 111° |
| 2026-05-01 10:46 | 46.40034 | 14.03479 | 34600 ft | 471 kts | 111° |
| 2026-05-01 10:46 | 46.38626 | 14.07769 | 33611 ft | 471 kts | 111° |
| 2026-05-01 10:46 | 46.37214 | 14.12054 | 32528 ft | 470 kts | 111° |
| 2026-05-01 10:47 | 46.35861 | 14.16203 | 31775 ft | 465 kts | 111° |
| 2026-05-01 10:47 | 46.34493 | 14.20410 | 31095 ft | 459 kts | 111° |
| 2026-05-01 10:47 | 46.33121 | 14.24564 | 30548 ft | 457 kts | 111° |
| 2026-05-01 10:47 | 46.31740 | 14.28711 | 30280 ft | 458 kts | 112° |
| 2026-05-01 10:48 | 46.30348 | 14.32869 | 29996 ft | 459 kts | 112° |
| 2026-05-01 10:48 | 46.28958 | 14.37032 | 29706 ft | 460 kts | 112° |
| 2026-05-01 10:48 | 46.27672 | 14.40896 | 29447 ft | 461 kts | 112° |
| 2026-05-01 10:48 | 46.26283 | 14.45073 | 29165 ft | 461 kts | 112° |
| 2026-05-01 10:49 | 46.24891 | 14.49253 | 28896 ft | 462 kts | 112° |
| 2026-05-01 10:49 | 46.23492 | 14.53441 | 28631 ft | 463 kts | 112° |
| 2026-05-01 10:49 | 46.22091 | 14.57628 | 28355 ft | 463 kts | 112° |
| 2026-05-01 10:49 | 46.20668 | 14.61866 | 28083 ft | 462 kts | 112° |
| 2026-05-01 10:50 | 46.19287 | 14.65976 | 27824 ft | 460 kts | 112° |
| 2026-05-01 10:50 | 46.17877 | 14.70176 | 27554 ft | 459 kts | 112° |
| 2026-05-01 10:50 | 46.16488 | 14.74312 | 27348 ft | 457 kts | 112° |
| 2026-05-01 10:50 | 46.15101 | 14.78440 | 27390 ft | 457 kts | 112° |
| 2026-05-01 10:51 | 46.13713 | 14.82561 | 27384 ft | 457 kts | 112° |
| 2026-05-01 10:51 | 46.12324 | 14.86667 | 26740 ft | 454 kts | 112° |
| 2026-05-01 10:51 | 46.10938 | 14.90751 | 25855 ft | 451 kts | 112° |
| 2026-05-01 10:51 | 46.09567 | 14.94780 | 25103 ft | 445 kts | 112° |
| 2026-05-01 10:52 | 46.08209 | 14.98769 | 24345 ft | 441 kts | 112° |
| 2026-05-01 10:52 | 46.06869 | 15.02708 | 23531 ft | 437 kts | 112° |
| 2026-05-01 10:52 | 46.05537 | 15.06619 | 22801 ft | 431 kts | 112° |
| 2026-05-01 10:52 | 46.04226 | 15.10458 | 22130 ft | 425 kts | 112° |
| 2026-05-01 10:53 | 46.02923 | 15.14261 | 21473 ft | 421 kts | 113° |
| 2026-05-01 10:53 | 46.01632 | 15.18021 | 20832 ft | 417 kts | 113° |
| 2026-05-01 10:53 | 46.00357 | 15.21737 | 20227 ft | 413 kts | 113° |
| 2026-05-01 10:53 | 45.99093 | 15.25417 | 19629 ft | 409 kts | 113° |
| 2026-05-01 10:54 | 45.97837 | 15.29077 | 19072 ft | 406 kts | 113° |
| 2026-05-01 10:54 | 45.96593 | 15.32705 | 18488 ft | 404 kts | 113° |
| 2026-05-01 10:54 | 45.95352 | 15.36320 | 17946 ft | 401 kts | 113° |
| 2026-05-01 10:54 | 45.94125 | 15.39887 | 17399 ft | 396 kts | 113° |
| 2026-05-01 10:55 | 45.92909 | 15.43416 | 16866 ft | 392 kts | 113° |
| 2026-05-01 10:55 | 45.91702 | 15.46907 | 16322 ft | 388 kts | 113° |
| 2026-05-01 10:55 | 45.90513 | 15.50329 | 16041 ft | 377 kts | 113° |
| 2026-05-01 10:55 | 45.89351 | 15.53666 | 15635 ft | 371 kts | 113° |
| 2026-05-01 10:56 | 45.88408 | 15.56377 | 15262 ft | 367 kts | 113° |
| 2026-05-01 10:56 | 45.87367 | 15.59369 | 14811 ft | 365 kts | 113° |
| 2026-05-01 10:56 | 45.86238 | 15.62607 | 14330 ft | 362 kts | 113° |
| 2026-05-01 10:56 | 45.85114 | 15.65826 | 13801 ft | 359 kts | 113° |
| 2026-05-01 10:57 | 45.83790 | 15.68859 | 13149 ft | 363 kts | 128° |
| 2026-05-01 10:57 | 45.81970 | 15.71444 | 12489 ft | 364 kts | 134° |
| 2026-05-01 10:57 | 45.80156 | 15.73898 | 11859 ft | 362 kts | 134° |
| 2026-05-01 10:57 | 45.78308 | 15.76391 | 11220 ft | 359 kts | 134° |
| 2026-05-01 10:58 | 45.76258 | 15.78424 | 10573 ft | 363 kts | 155° |
| 2026-05-01 10:58 | 45.73776 | 15.79004 | 10040 ft | 365 kts | 183° |
| 2026-05-01 10:58 | 45.71437 | 15.77900 | 9879 ft | 347 kts | 212° |
| 2026-05-01 10:58 | 45.69731 | 15.75651 | 9742 ft | 323 kts | 229° |
| 2026-05-01 10:59 | 45.68160 | 15.73501 | 9493 ft | 306 kts | 221° |
| 2026-05-01 10:59 | 45.66558 | 15.71540 | 9126 ft | 302 kts | 220° |
| 2026-05-01 10:59 | 45.64967 | 15.69604 | 8788 ft | 298 kts | 220° |
| 2026-05-01 10:59 | 45.63376 | 15.67741 | 8491 ft | 292 kts | 213° |
| 2026-05-01 11:00 | 45.61530 | 15.66884 | 8356 ft | 272 kts | 176° |
| 2026-05-01 11:00 | 45.59821 | 15.67583 | 8163 ft | 248 kts | 143° |
| 2026-05-01 11:00 | 45.58553 | 15.69113 | 7979 ft | 231 kts | 129° |
| 2026-05-01 11:00 | 45.57524 | 15.70823 | 7629 ft | 223 kts | 117° |
| 2026-05-01 11:01 | 45.56906 | 15.72807 | 7242 ft | 217 kts | 103° |
| 2026-05-01 11:01 | 45.56573 | 15.74896 | 6867 ft | 214 kts | 95° |
| 2026-05-01 11:01 | 45.56505 | 15.77004 | 6449 ft | 212 kts | 84° |
| 2026-05-01 11:01 | 45.56762 | 15.79055 | 6122 ft | 209 kts | 71° |
| 2026-05-01 11:02 | 45.57335 | 15.80891 | 5980 ft | 197 kts | 58° |
| 2026-05-01 11:02 | 45.58144 | 15.82394 | 5848 ft | 186 kts | 46° |
| 2026-05-01 11:02 | 45.59016 | 15.83699 | 5714 ft | 177 kts | 46° |
| 2026-05-01 11:02 | 45.59854 | 15.84966 | 5546 ft | 175 kts | 46° |
| 2026-05-01 11:03 | 45.60681 | 15.86219 | 5438 ft | 173 kts | 46° |
| 2026-05-01 11:03 | 45.61501 | 15.87462 | 5130 ft | 173 kts | 46° |
| 2026-05-01 11:03 | 45.62340 | 15.88731 | 4753 ft | 180 kts | 46° |
| 2026-05-01 11:03 | 45.63223 | 15.90061 | 4356 ft | 185 kts | 46° |
| 2026-05-01 11:04 | 45.64076 | 15.91350 | 4001 ft | 173 kts | 46° |
| 2026-05-01 11:04 | 45.64888 | 15.92581 | 3654 ft | 167 kts | 46° |
| 2026-05-01 11:04 | 45.65671 | 15.93767 | 3273 ft | 162 kts | 46° |
| 2026-05-01 11:04 | 45.66452 | 15.94951 | 2935 ft | 161 kts | 46° |
| 2026-05-01 11:05 | 45.67225 | 15.96119 | 2553 ft | 163 kts | 45° |
| 2026-05-01 11:05 | 45.67979 | 15.97262 | 2185 ft | 151 kts | 45° |
| 2026-05-01 11:05 | 45.68663 | 15.98304 | 2022 ft | 135 kts | 46° |
| 2026-05-01 11:05 | 45.69297 | 15.99263 | 1944 ft | 134 kts | 45° |
| 2026-05-01 11:06 | 45.69965 | 16.00292 | 1667 ft | 146 kts | 48° |
| 2026-05-01 11:06 | 45.70632 | 16.01379 | 1300 ft | 139 kts | 48° |
| 2026-05-01 11:06 | 45.71269 | 16.02344 | 1088 ft | 128 kts | 46° |
| 2026-05-01 11:07 | 45.72449 | 16.04120 | 751 ft | 121 kts | 46° |
| 2026-05-01 11:07 | 45.73031 | 16.04996 | 584 ft | 121 kts | 47° |
| 2026-05-01 11:07 | 45.73618 | 16.05851 | 421 ft | 120 kts | 46° |
| 2026-05-01 11:07 | 45.74164 | 16.06683 | 361 ft | 100 kts | 47° |
| 2026-05-01 11:08 | 45.74524 | 16.07228 | 358 ft | 49 kts | 46° |
| 2026-05-01 11:08 | 45.74644 | 16.07410 | 358 ft | 16 kts | 47° |
| 2026-05-01 11:08 | 45.74633 | 16.07573 | 363 ft | 11 kts | 136° |
| 2026-05-01 11:09 | 45.74578 | 16.07647 | 363 ft | 11 kts | 137° |
| 2026-05-01 11:09 | 45.74520 | 16.07723 | 359 ft | 12 kts | 137° |
| 2026-05-01 11:09 | 45.74456 | 16.07809 | 363 ft | 13 kts | 135° |
| 2026-05-01 11:10 | 45.74360 | 16.07906 | 360 ft | 6 kts | 189° |
| 2026-05-01 11:10 | 45.74324 | 16.07890 | 359 ft | 5 kts | 174° |
| 2026-05-01 11:10 | 45.74290 | 16.07929 | 365 ft | 8 kts | 137° |
| 2026-05-01 11:10 | 45.74269 | 16.07956 | 359 ft | 2 kts | 136° |
| 2026-05-01 11:11 | 45.74264 | 16.07963 | 359 ft | 0 kts | 136° |